Time;durP1;ratioP1;P1;durP2;ratioP2;P2;SDS_P1;SDS_P2;PMS_P1;PMS_P2;Temp;Humidity;BMP_temperature;BMP_pressure;BME280_temperature;BME280_humidity;BME280_pressure;Samples;Min_cycle;Max_cycle;Signal;HPM_P1;HPM_P2
2023/09/15 00:00:23;;;;;;;5.60;4.17;;;15.10;99.90;;;;;;4915235;29;20241;-27
2023/09/15 00:02:51;;;;;;;5.10;4.17;;;15.10;99.90;;;;;;4930651;29;20257;-28
2023/09/15 00:05:17;;;;;;;6.43;4.37;;;15.00;99.90;;;;;;4915721;29;20273;-27
2023/09/15 00:07:43;;;;;;;4.93;3.73;;;14.90;99.90;;;;;;4915453;29;20280;-27
2023/09/15 00:10:11;;;;;;;10.03;6.40;;;14.90;99.90;;;;;;4922764;29;20209;-28
2023/09/15 00:12:38;;;;;;;9.23;5.73;;;14.90;99.90;;;;;;4915416;29;20303;-27
2023/09/15 00:15:07;;;;;;;10.33;5.70;;;14.90;99.90;;;;;;4916598;29;20185;-28
2023/09/15 00:17:38;;;;;;;6.17;4.43;;;14.90;99.90;;;;;;4929029;29;20282;-28
2023/09/15 00:20:14;;;;;;;7.50;4.50;;;14.80;99.90;;;;;;4918987;29;20205;-27
2023/09/15 00:22:50;;;;;;;8.93;4.87;;;14.90;99.90;;;;;;4926250;29;20209;-27
2023/09/15 00:25:21;;;;;;;4.70;4.07;;;14.80;99.90;;;;;;4924342;29;20185;-28
2023/09/15 00:27:48;;;;;;;4.83;4.13;;;14.80;99.90;;;;;;4919647;29;20182;-27
2023/09/15 00:30:16;;;;;;;5.07;3.90;;;14.80;99.90;;;;;;4934566;29;20210;-27
2023/09/15 00:32:42;;;;;;;5.33;4.10;;;14.70;99.90;;;;;;4918697;29;20213;-28
2023/09/15 00:35:08;;;;;;;5.93;3.70;;;14.70;99.90;;;;;;4934800;29;20181;-28
2023/09/15 00:37:34;;;;;;;4.57;3.60;;;14.60;99.90;;;;;;4929064;29;20186;-26
2023/09/15 00:40:00;;;;;;;3.97;3.57;;;14.60;99.90;;;;;;4918751;29;20206;-27
2023/09/15 00:42:26;;;;;;;4.67;3.77;;;14.60;99.90;;;;;;4919144;29;20185;-27
2023/09/15 00:44:52;;;;;;;5.27;3.57;;;14.60;99.90;;;;;;4926399;29;20713;-27
2023/09/15 00:47:18;;;;;;;4.17;3.43;;;14.60;99.90;;;;;;4927347;29;20188;-27
2023/09/15 00:49:45;;;;;;;5.40;4.03;;;14.60;99.90;;;;;;4918669;29;20214;-27
2023/09/15 00:52:11;;;;;;;4.73;3.80;;;14.50;99.90;;;;;;4919402;29;20237;-28
2023/09/15 00:54:39;;;;;;;4.30;3.90;;;14.60;99.90;;;;;;4926416;29;20201;-28
2023/09/15 00:57:06;;;;;;;6.23;4.00;;;14.50;99.90;;;;;;4917932;29;20186;-27
2023/09/15 00:59:33;;;;;;;5.30;3.80;;;14.50;99.90;;;;;;4916433;29;20206;-28
2023/09/15 01:02:00;;;;;;;5.37;3.87;;;14.50;99.90;;;;;;4923978;29;20190;-27
2023/09/15 01:04:29;;;;;;;4.77;3.80;;;14.50;99.90;;;;;;4918108;29;20178;-27
2023/09/15 01:06:57;;;;;;;4.33;3.93;;;14.50;99.90;;;;;;4916273;29;20193;-27
2023/09/15 01:09:25;;;;;;;4.07;3.47;;;14.50;99.90;;;;;;4919643;29;20228;-27
2023/09/15 01:11:51;;;;;;;4.77;3.60;;;14.40;99.90;;;;;;4927386;29;20182;-27
2023/09/15 01:14:18;;;;;;;3.73;3.43;;;14.40;99.90;;;;;;4933688;29;20193;-27
2023/09/15 01:16:57;;;;;;;4.33;3.93;;;14.40;99.90;;;;;;4915578;29;20173;-27
2023/09/15 01:19:53;;;;;;;6.10;4.03;;;14.40;99.90;;;;;;4917997;29;20218;-27
2023/09/15 01:22:37;;;;;;;4.50;3.63;;;14.30;99.90;;;;;;4932558;29;20191;-28
2023/09/15 01:25:28;;;;;;;5.00;4.10;;;14.30;99.90;;;;;;4933847;29;20212;-28
2023/09/15 01:28:16;;;;;;;4.43;4.00;;;14.20;99.90;;;;;;4934693;29;20719;-28
2023/09/15 01:30:44;;;;;;;6.03;3.80;;;14.20;99.90;;;;;;4933785;29;20206;-28
2023/09/15 01:33:13;;;;;;;3.63;3.33;;;14.20;99.90;;;;;;4918114;29;20281;-27
2023/09/15 01:35:39;;;;;;;4.80;3.77;;;14.20;99.90;;;;;;4917827;29;20178;-27
2023/09/15 01:38:05;;;;;;;4.60;3.90;;;14.10;99.90;;;;;;4922803;29;20685;-28
2023/09/15 01:40:34;;;;;;;4.53;3.40;;;14.10;99.90;;;;;;4932106;29;20222;-28
2023/09/15 01:43:05;;;;;;;5.80;4.07;;;14.00;99.90;;;;;;4932527;29;20198;-28
2023/09/15 01:45:31;;;;;;;6.23;4.13;;;14.00;99.90;;;;;;4924343;29;20221;-28
2023/09/15 01:47:58;;;;;;;5.30;4.10;;;13.90;99.90;;;;;;4932662;29;20186;-27
2023/09/15 01:50:28;;;;;;;4.00;3.60;;;13.90;99.90;;;;;;4925847;29;20214;-27
2023/09/15 01:52:56;;;;;;;6.43;4.10;;;13.90;99.90;;;;;;4931046;29;20253;-27
2023/09/15 01:55:24;;;;;;;5.63;3.93;;;13.90;99.90;;;;;;4924375;29;20192;-27
2023/09/15 01:57:50;;;;;;;5.03;3.30;;;13.80;99.90;;;;;;4925821;29;20178;-27
2023/09/15 02:00:16;;;;;;;5.70;4.17;;;13.80;99.90;;;;;;4916779;29;20202;-28
2023/09/15 02:02:42;;;;;;;5.53;3.67;;;13.80;99.90;;;;;;4917742;29;20272;-29
2023/09/15 02:05:14;;;;;;;6.13;3.90;;;13.80;99.90;;;;;;4924373;29;20229;-27
2023/09/15 02:07:40;;;;;;;5.73;4.03;;;13.80;99.90;;;;;;4925404;29;20190;-27
2023/09/15 02:10:06;;;;;;;8.57;4.33;;;13.70;99.90;;;;;;4925825;29;20223;-27
2023/09/15 02:12:32;;;;;;;5.50;3.93;;;13.60;99.90;;;;;;4925359;29;20217;-30
2023/09/15 02:14:58;;;;;;;8.07;4.40;;;13.50;99.90;;;;;;4924874;29;20217;-28
2023/09/15 02:17:24;;;;;;;6.30;3.90;;;13.50;99.90;;;;;;4930094;29;20188;-27
2023/09/15 02:19:49;;;;;;;4.43;3.80;;;13.50;99.90;;;;;;4926480;29;20248;-27
2023/09/15 02:22:15;;;;;;;4.40;4.00;;;13.50;99.90;;;;;;4915775;29;20198;-27
2023/09/15 02:24:41;;;;;;;5.20;3.97;;;13.50;99.90;;;;;;4918313;29;20185;-28
2023/09/15 02:27:07;;;;;;;6.00;4.23;;;13.60;99.90;;;;;;4915856;29;20654;-26
2023/09/15 02:29:33;;;;;;;5.87;3.57;;;13.60;99.90;;;;;;4926974;29;20213;-28
2023/09/15 02:31:58;;;;;;;3.80;3.40;;;13.60;99.90;;;;;;4940944;29;20178;-28
2023/09/15 02:34:24;;;;;;;5.03;3.80;;;13.60;99.90;;;;;;4917710;29;20178;-27
2023/09/15 02:36:50;;;;;;;5.87;3.53;;;13.60;99.90;;;;;;4916973;29;20269;-28
2023/09/15 02:39:16;;;;;;;6.03;4.10;;;13.60;99.90;;;;;;4923991;29;20213;-27
2023/09/15 02:41:42;;;;;;;5.10;4.17;;;13.60;99.90;;;;;;4916960;29;20269;-27
2023/09/15 02:44:09;;;;;;;6.10;3.57;;;13.50;99.90;;;;;;4924758;29;20190;-28
2023/09/15 02:46:35;;;;;;;4.47;3.43;;;13.50;99.90;;;;;;4924706;29;20209;-27
2023/09/15 02:49:01;;;;;;;4.40;3.47;;;13.50;99.90;;;;;;4918007;29;20212;-27
2023/09/15 02:51:28;;;;;;;4.93;3.80;;;13.40;99.90;;;;;;4968626;23;20225;-29
2023/09/15 02:53:54;;;;;;;3.67;3.30;;;13.40;99.90;;;;;;4941126;29;20178;-29
2023/09/15 02:56:22;;;;;;;5.33;3.60;;;13.40;99.90;;;;;;4940611;29;20232;-29
2023/09/15 02:58:48;;;;;;;4.33;3.40;;;13.40;99.90;;;;;;4942487;29;20192;-30
2023/09/15 03:01:15;;;;;;;4.10;3.70;;;13.30;99.90;;;;;;4949526;28;20201;-30
2023/09/15 03:03:49;;;;;;;5.40;3.77;;;13.30;99.90;;;;;;4925537;29;20219;-29
2023/09/15 03:06:16;;;;;;;4.20;3.80;;;13.30;99.90;;;;;;4922644;29;20214;-29
2023/09/15 03:08:43;;;;;;;5.67;4.03;;;13.30;99.90;;;;;;4929809;29;20209;-29
2023/09/15 03:11:19;;;;;;;4.57;4.00;;;13.30;99.90;;;;;;4924492;29;20284;-30
2023/09/15 03:13:46;;;;;;;4.73;3.90;;;13.30;99.90;;;;;;4941639;29;20181;-30
2023/09/15 03:16:13;;;;;;;4.67;4.17;;;13.20;99.90;;;;;;4926661;29;20228;-30
2023/09/15 03:18:39;;;;;;;6.17;4.37;;;13.20;99.90;;;;;;4926013;29;20244;-30
2023/09/15 03:21:06;;;;;;;4.33;3.57;;;13.20;99.90;;;;;;4926152;29;20201;-29
2023/09/15 03:23:32;;;;;;;4.83;4.23;;;13.20;99.90;;;;;;4926601;29;20206;-29
2023/09/15 03:26:02;;;;;;;5.00;4.10;;;13.10;99.90;;;;;;4931491;29;20447;-29
2023/09/15 03:28:33;;;;;;;4.77;3.87;;;13.10;99.90;;;;;;4932457;29;20177;-29
2023/09/15 03:31:03;;;;;;;6.73;3.83;;;13.10;99.90;;;;;;4937470;29;20221;-30
2023/09/15 03:33:30;;;;;;;4.90;3.83;;;13.10;99.90;;;;;;4935644;29;20182;-29
2023/09/15 03:35:57;;;;;;;4.83;4.17;;;13.00;99.90;;;;;;4930491;29;20182;-32
2023/09/15 03:38:23;;;;;;;4.00;3.60;;;13.00;99.90;;;;;;4905933;29;20194;-30
2023/09/15 03:40:49;;;;;;;4.43;3.30;;;13.00;99.90;;;;;;4909902;29;20210;-30
2023/09/15 03:43:16;;;;;;;6.93;4.10;;;13.00;99.90;;;;;;4917672;29;20190;-29
2023/09/15 03:45:44;;;;;;;4.60;3.93;;;12.90;99.90;;;;;;4923847;29;20639;-29
2023/09/15 03:48:10;;;;;;;5.03;3.90;;;12.90;99.90;;;;;;4940063;29;20266;-29
2023/09/15 03:50:36;;;;;;;5.20;4.07;;;12.80;99.90;;;;;;4928427;29;20212;-30
2023/09/15 03:53:02;;;;;;;4.60;4.03;;;12.80;99.90;;;;;;4923776;29;20237;-29
2023/09/15 03:55:28;;;;;;;4.57;3.80;;;12.70;99.90;;;;;;4924708;29;20190;-30
2023/09/15 03:57:54;;;;;;;6.27;4.40;;;12.80;99.90;;;;;;4925282;29;20189;-30
2023/09/15 04:00:21;;;;;;;7.57;4.00;;;12.80;99.90;;;;;;4924236;29;20206;-30
2023/09/15 04:02:48;;;;;;;7.80;4.20;;;12.80;99.90;;;;;;4923419;29;20179;-29
2023/09/15 04:05:15;;;;;;;7.90;4.20;;;12.80;99.90;;;;;;4924695;29;20193;-30
2023/09/15 04:07:41;;;;;;;4.30;3.60;;;12.80;99.90;;;;;;4923803;29;20265;-29
2023/09/15 04:10:08;;;;;;;6.00;3.50;;;12.90;99.90;;;;;;4924008;29;20209;-29
2023/09/15 04:12:35;;;;;;;3.97;3.20;;;12.90;99.90;;;;;;4928339;29;20193;-29
2023/09/15 04:15:01;;;;;;;7.50;4.13;;;12.90;99.90;;;;;;4928441;29;20182;-28
2023/09/15 04:17:33;;;;;;;5.27;3.90;;;12.80;99.90;;;;;;4956756;28;20192;-29
2023/09/15 04:20:08;;;;;;;7.57;3.90;;;12.80;99.90;;;;;;4938992;29;20248;-30
2023/09/15 04:22:34;;;;;;;4.73;3.70;;;12.80;99.90;;;;;;4929952;29;20276;-30
2023/09/15 04:25:00;;;;;;;5.37;4.00;;;12.80;99.90;;;;;;4924887;29;20185;-30
2023/09/15 04:27:26;;;;;;;4.83;3.90;;;12.80;99.90;;;;;;4924493;29;20189;-30
2023/09/15 04:29:55;;;;;;;5.37;4.33;;;12.80;99.90;;;;;;4926926;29;20245;-29
2023/09/15 04:32:27;;;;;;;6.40;3.90;;;12.70;99.90;;;;;;4938124;29;20249;-29
2023/09/15 04:34:54;;;;;;;4.77;3.80;;;12.50;99.90;;;;;;4929891;29;20190;-30
2023/09/15 04:37:21;;;;;;;4.63;4.03;;;12.40;99.90;;;;;;4918407;29;20238;-30
2023/09/15 04:39:50;;;;;;;4.57;3.70;;;12.40;99.90;;;;;;4927975;29;20205;-39
2023/09/15 04:42:18;;;;;;;4.97;4.17;;;12.40;99.90;;;;;;4920233;29;20193;-31
2023/09/15 04:44:45;;;;;;;4.27;3.77;;;12.40;99.90;;;;;;4921900;29;20196;-30
2023/09/15 04:47:13;;;;;;;4.90;3.87;;;12.50;99.90;;;;;;4928060;29;20186;-29
2023/09/15 04:49:41;;;;;;;4.93;3.80;;;12.50;99.90;;;;;;4923080;29;20214;-29
2023/09/15 04:52:07;;;;;;;4.93;4.20;;;12.60;99.90;;;;;;4925333;29;20258;-29
2023/09/15 04:54:33;;;;;;;6.83;3.90;;;12.60;99.90;;;;;;4932257;29;20203;-29
2023/09/15 04:56:59;;;;;;;4.57;4.13;;;12.70;99.90;;;;;;4922100;29;20209;-28
2023/09/15 04:59:25;;;;;;;3.83;3.50;;;12.70;99.90;;;;;;4938337;29;20194;-29
2023/09/15 05:01:51;;;;;;;6.30;3.97;;;12.80;99.90;;;;;;4931238;29;20187;-30
2023/09/15 05:04:19;;;;;;;4.67;3.70;;;12.80;99.90;;;;;;4929366;29;20185;-30
2023/09/15 05:06:46;;;;;;;4.20;3.63;;;12.80;99.90;;;;;;4943334;29;20185;-30
2023/09/15 05:09:18;;;;;;;5.10;3.60;;;12.80;99.90;;;;;;4925918;29;20209;-29
2023/09/15 05:11:44;;;;;;;4.67;3.80;;;12.80;99.90;;;;;;4941712;29;20182;-30
2023/09/15 05:14:10;;;;;;;4.70;3.93;;;12.80;99.90;;;;;;4924187;29;20237;-31
2023/09/15 05:16:37;;;;;;;4.57;3.77;;;12.70;99.90;;;;;;4925638;29;20273;-29
2023/09/15 05:19:02;;;;;;;4.07;3.67;;;12.70;99.90;;;;;;4934083;29;20320;-29
2023/09/15 05:21:28;;;;;;;4.67;3.93;;;12.60;99.90;;;;;;4929717;29;20210;-29
2023/09/15 05:23:56;;;;;;;6.63;3.80;;;12.50;99.90;;;;;;4925118;29;20194;-29
2023/09/15 05:26:23;;;;;;;3.63;3.33;;;12.60;99.90;;;;;;4924961;29;20189;-29
2023/09/15 05:28:50;;;;;;;5.37;3.80;;;12.50;99.90;;;;;;4929890;29;20732;-29
2023/09/15 05:31:17;;;;;;;5.03;3.90;;;12.50;99.90;;;;;;4926912;29;20212;-30
2023/09/15 05:33:44;;;;;;;6.30;3.87;;;12.50;99.90;;;;;;4927592;29;20193;-30
2023/09/15 05:36:11;;;;;;;6.50;4.53;;;12.50;99.90;;;;;;4940946;29;20182;-29
2023/09/15 05:38:38;;;;;;;5.00;4.17;;;12.50;99.90;;;;;;4938608;29;20190;-30
2023/09/15 05:41:04;;;;;;;4.83;4.27;;;12.50;99.90;;;;;;4942118;29;20206;-29
2023/09/15 05:43:30;;;;;;;5.33;4.30;;;12.60;99.90;;;;;;4922977;29;20197;-29
2023/09/15 05:45:56;;;;;;;5.50;4.57;;;12.70;99.90;;;;;;4930740;29;20271;-29
2023/09/15 05:48:26;;;;;;;6.13;4.50;;;12.90;99.90;;;;;;4931469;29;20193;-30
2023/09/15 05:50:52;;;;;;;6.30;4.40;;;13.00;99.90;;;;;;4929881;29;20212;-30
2023/09/15 05:53:19;;;;;;;7.03;4.97;;;13.00;99.90;;;;;;4923038;29;20189;-29
2023/09/15 05:55:45;;;;;;;4.53;4.07;;;13.10;99.90;;;;;;4933287;29;20244;-30
2023/09/15 05:58:10;;;;;;;6.83;4.27;;;13.10;99.90;;;;;;4930500;29;20178;-30
2023/09/15 06:00:36;;;;;;;5.77;3.97;;;13.20;99.90;;;;;;4925989;29;20213;-29
2023/09/15 06:03:03;;;;;;;5.60;4.00;;;13.30;99.90;;;;;;4930522;29;20187;-29
2023/09/15 06:05:28;;;;;;;5.93;3.80;;;13.30;99.90;;;;;;4927030;29;20194;-29
2023/09/15 06:07:55;;;;;;;8.07;3.93;;;13.30;99.90;;;;;;4940542;29;20192;-29
2023/09/15 06:10:21;;;;;;;4.90;3.90;;;13.40;99.90;;;;;;4930373;29;20217;-29
2023/09/15 06:12:51;;;;;;;4.90;4.40;;;13.50;99.90;;;;;;4925042;29;20261;-29
2023/09/15 06:15:17;;;;;;;5.10;4.27;;;13.60;99.90;;;;;;4933047;29;20178;-30
2023/09/15 06:17:43;;;;;;;5.63;4.43;;;13.60;99.90;;;;;;4925329;29;20185;-30
2023/09/15 06:20:10;;;;;;;7.00;4.30;;;13.60;99.90;;;;;;4924846;29;20214;-30
2023/09/15 06:22:37;;;;;;;5.13;3.90;;;13.70;99.90;;;;;;4923535;29;20189;-30
2023/09/15 06:25:04;;;;;;;5.00;3.90;;;13.80;99.90;;;;;;4925240;29;20192;-29
2023/09/15 06:27:32;;;;;;;5.50;3.40;;;13.90;99.90;;;;;;4929147;29;20187;-29
2023/09/15 06:30:05;;;;;;;5.23;4.23;;;13.90;99.90;;;;;;4939415;29;20217;-29
2023/09/15 06:32:31;;;;;;;4.37;3.97;;;14.00;99.90;;;;;;4906569;29;20198;-29
2023/09/15 06:34:57;;;;;;;4.57;4.13;;;14.00;99.90;;;;;;4938283;29;20193;-30
2023/09/15 06:37:24;;;;;;;4.53;3.90;;;14.10;99.90;;;;;;4921499;29;20183;-30
2023/09/15 06:39:51;;;;;;;4.83;4.10;;;14.10;99.90;;;;;;4930515;29;20209;-29
2023/09/15 06:42:17;;;;;;;6.90;4.50;;;14.20;99.90;;;;;;4938118;29;20189;-30
2023/09/15 06:44:44;;;;;;;5.40;4.10;;;14.20;99.90;;;;;;4932029;29;20204;-30
2023/09/15 06:47:11;;;;;;;5.50;4.37;;;14.20;99.90;;;;;;4939374;29;20183;-29
2023/09/15 06:49:36;;;;;;;6.03;4.60;;;14.30;99.90;;;;;;4939079;29;20281;-30
2023/09/15 06:52:03;;;;;;;4.50;3.73;;;14.30;99.90;;;;;;4940820;29;20181;-30
2023/09/15 06:54:29;;;;;;;4.87;4.40;;;14.40;99.90;;;;;;4939320;29;20198;-29
2023/09/15 06:56:54;;;;;;;6.07;4.33;;;14.60;99.90;;;;;;4940782;29;20184;-29
2023/09/15 06:59:20;;;;;;;6.70;4.63;;;14.60;99.90;;;;;;4933162;29;20240;-30
2023/09/15 07:01:46;;;;;;;4.80;4.30;;;14.70;99.90;;;;;;4933422;29;20283;-30
2023/09/15 07:04:13;;;;;;;6.73;4.73;;;14.80;99.90;;;;;;4933948;29;20193;-30
2023/09/15 07:06:40;;;;;;;7.17;4.27;;;14.90;99.90;;;;;;4926629;29;20304;-30
2023/09/15 07:09:06;;;;;;;6.00;4.73;;;15.00;99.90;;;;;;4932185;29;20209;-30
2023/09/15 07:11:32;;;;;;;5.90;4.57;;;15.00;99.90;;;;;;4932372;29;20299;-30
2023/09/15 07:13:58;;;;;;;5.90;4.40;;;15.10;99.90;;;;;;4927675;29;20270;-30
2023/09/15 07:16:24;;;;;;;5.10;4.60;;;15.20;99.90;;;;;;4919968;29;20190;-30
2023/09/15 07:18:50;;;;;;;5.77;4.23;;;15.30;99.90;;;;;;4926499;29;20186;-30
2023/09/15 07:21:16;;;;;;;5.10;4.50;;;15.40;99.90;;;;;;4923269;29;20239;-30
2023/09/15 07:23:42;;;;;;;5.10;4.60;;;15.50;99.90;;;;;;4924335;29;20201;-30
2023/09/15 07:26:07;;;;;;;6.20;4.93;;;15.60;99.90;;;;;;4940867;29;20185;-30
2023/09/15 07:28:33;;;;;;;5.57;4.47;;;15.60;99.90;;;;;;4929013;29;20225;-30
2023/09/15 07:31:06;;;;;;;5.23;4.33;;;15.70;99.90;;;;;;4922086;29;20214;-30
2023/09/15 07:33:33;;;;;;;4.70;4.30;;;15.80;99.90;;;;;;4924569;29;20193;-30
2023/09/15 07:36:04;;;;;;;5.23;4.67;;;15.90;99.90;;;;;;4937306;29;20221;-30
2023/09/15 07:38:31;;;;;;;8.57;5.47;;;16.00;99.90;;;;;;4922778;29;20185;-30
2023/09/15 07:40:57;;;;;;;6.40;5.70;;;16.10;99.90;;;;;;4933427;29;20229;-30
2023/09/15 07:43:23;;;;;;;6.63;5.67;;;16.20;99.90;;;;;;4923066;29;20186;-30
2023/09/15 07:45:53;;;;;;;10.27;7.05;;;16.30;99.90;;;;;;4925014;29;20185;-30
2023/09/15 07:48:20;;;;;;;6.88;5.53;;;16.50;99.90;;;;;;4927043;29;20191;-30
2023/09/15 07:50:46;;;;;;;6.82;5.88;;;16.60;99.90;;;;;;4939069;29;20225;-31
2023/09/15 07:53:12;;;;;;;5.78;5.00;;;16.70;99.90;;;;;;4930213;29;20185;-30
2023/09/15 07:55:38;;;;;;;7.78;4.78;;;16.80;99.90;;;;;;4929531;29;20266;-31
2023/09/15 07:58:04;;;;;;;7.00;5.53;;;16.90;99.90;;;;;;4930743;29;20185;-31
2023/09/15 08:00:30;;;;;;;6.45;5.50;;;17.00;99.90;;;;;;4929516;29;20202;-30
2023/09/15 08:02:56;;;;;;;5.40;4.90;;;17.10;99.90;;;;;;4930922;29;20218;-30
2023/09/15 08:05:22;;;;;;;6.68;5.72;;;17.20;99.90;;;;;;4923419;29;20194;-30
2023/09/15 08:07:49;;;;;;;8.07;5.65;;;17.20;99.90;;;;;;4940579;29;20263;-31
2023/09/15 08:10:18;;;;;;;7.32;6.07;;;17.20;99.90;;;;;;4928486;29;20214;-30
2023/09/15 08:12:44;;;;;;;6.15;5.55;;;17.20;99.90;;;;;;4923184;29;20249;-31
2023/09/15 08:15:10;;;;;;;6.80;5.78;;;17.50;99.90;;;;;;4931826;29;20197;-31
2023/09/15 08:17:36;;;;;;;6.60;5.90;;;17.60;99.90;;;;;;4928817;29;20177;-31
2023/09/15 08:20:04;;;;;;;8.15;5.78;;;17.70;99.90;;;;;;4931457;29;20228;-30
2023/09/15 08:22:32;;;;;;;7.90;5.55;;;17.80;99.90;;;;;;4928464;29;20190;-30
2023/09/15 08:25:01;;;;;;;8.05;6.03;;;17.90;99.90;;;;;;4924535;29;20182;-30
2023/09/15 08:27:27;;;;;;;6.32;5.63;;;17.90;99.90;;;;;;4938946;29;20185;-29
2023/09/15 08:29:53;;;;;;;6.28;5.68;;;18.00;99.90;;;;;;4941225;29;20285;-30
2023/09/15 08:32:18;;;;;;;7.57;6.28;;;18.20;99.90;;;;;;4928344;29;20199;-30
2023/09/15 08:34:44;;;;;;;6.85;6.15;;;18.30;99.90;;;;;;4924266;29;20184;-29
2023/09/15 08:37:12;;;;;;;6.07;5.43;;;18.40;99.90;;;;;;4944898;29;20181;-30
2023/09/15 08:39:38;;;;;;;7.90;6.32;;;18.60;99.90;;;;;;4935268;29;20205;-31
2023/09/15 08:42:28;;;;;;;7.63;5.72;;;18.70;99.90;;;;;;4924912;29;20209;-31
2023/09/15 08:44:56;;;;;;;9.00;6.57;;;18.80;99.90;;;;;;4927205;29;20340;-30
2023/09/15 08:47:24;;;;;;;7.10;5.38;;;19.00;99.90;;;;;;4925792;29;20186;-30
2023/09/15 08:52:24;;;;;;;6.88;5.63;;;19.40;99.90;;;;;;4925259;29;20306;-28
2023/09/15 08:54:51;;;;;;;6.68;5.70;;;19.60;99.90;;;;;;4925664;29;20250;-27
2023/09/15 08:57:18;;;;;;;6.18;5.53;;;19.80;99.90;;;;;;4924418;29;20190;-27
2023/09/15 08:59:45;;;;;;;6.53;4.68;;;20.00;99.90;;;;;;4925033;29;20189;-27
2023/09/15 09:02:13;;;;;;;5.03;4.47;;;20.10;99.90;;;;;;4925486;29;20178;-28
2023/09/15 09:04:39;;;;;;;7.30;5.00;;;20.30;99.90;;;;;;4907987;29;20237;-28
2023/09/15 09:07:06;;;;;;;6.28;5.05;;;20.50;99.90;;;;;;4926092;29;20186;-27
2023/09/15 09:09:32;;;;;;;8.23;6.07;;;20.70;99.90;;;;;;4910884;29;20224;-28
2023/09/15 09:11:58;;;;;;;5.70;5.13;;;20.70;99.90;;;;;;4924597;29;20266;-28
2023/09/15 09:14:24;;;;;;;6.03;5.40;;;20.70;99.90;;;;;;4924874;29;20190;-27
2023/09/15 09:16:52;;;;;;;7.13;5.47;;;20.80;99.90;;;;;;4925391;29;20178;-28
2023/09/15 09:19:18;;;;;;;7.00;5.28;;;20.90;99.90;;;;;;4923901;29;20190;-28
2023/09/15 09:21:44;;;;;;;5.25;4.78;;;20.90;99.90;;;;;;4907917;29;20265;-27
2023/09/15 09:24:11;;;;;;;5.82;4.47;;;21.10;99.90;;;;;;4920768;29;20222;-27
2023/09/15 09:26:38;;;;;;;5.70;5.20;;;21.20;99.90;;;;;;4922987;29;20193;-28
2023/09/15 09:29:05;;;;;;;8.80;6.00;;;21.30;99.90;;;;;;4922771;29;20296;-28
2023/09/15 09:31:33;;;;;;;7.25;5.10;;;21.30;99.90;;;;;;4923788;29;20221;-27
2023/09/15 09:34:01;;;;;;;6.25;5.03;;;21.20;99.90;;;;;;4904331;29;20186;-28
2023/09/15 09:36:28;;;;;;;7.68;5.10;;;21.30;99.90;;;;;;4907424;29;20285;-28
2023/09/15 09:38:59;;;;;;;6.47;5.78;;;21.40;99.90;;;;;;4919411;29;20178;-27
2023/09/15 09:41:28;;;;;;;5.88;5.22;;;21.40;99.90;;;;;;4908718;29;20258;-28
2023/09/15 09:43:55;;;;;;;5.70;5.20;;;21.50;99.90;;;;;;4922540;29;20178;-28
2023/09/15 09:46:29;;;;;;;5.65;4.43;;;21.60;99.90;;;;;;4903873;29;20189;-28
2023/09/15 09:49:00;;;;;;;7.35;5.22;;;21.80;99.90;;;;;;4906032;29;20214;-28
2023/09/15 09:51:30;;;;;;;5.80;5.20;;;21.90;99.90;;;;;;4917581;29;20224;-28
2023/09/15 09:53:57;;;;;;;7.43;5.15;;;22.00;99.90;;;;;;4922380;29;20175;-27
2023/09/15 09:56:24;;;;;;;5.63;5.10;;;22.00;99.90;;;;;;4923106;29;20185;-28
2023/09/15 09:58:52;;;;;;;6.07;4.90;;;22.20;99.90;;;;;;4921824;29;20187;-28
2023/09/15 10:01:21;;;;;;;6.43;4.53;;;22.40;99.90;;;;;;4921131;29;20670;-28
2023/09/15 10:03:53;;;;;;;7.32;5.28;;;22.50;99.90;;;;;;4921801;29;20183;-28
2023/09/15 10:06:21;;;;;;;5.18;4.68;;;22.70;99.90;;;;;;4922285;29;20281;-28
2023/09/15 10:08:48;;;;;;;6.93;5.07;;;22.70;99.90;;;;;;4923007;29;20195;-28
2023/09/15 10:11:20;;;;;;;6.13;5.53;;;22.90;99.90;;;;;;4910776;29;20245;-28
2023/09/15 10:13:53;;;;;;;5.85;4.95;;;23.00;99.90;;;;;;4921863;29;20191;-28
2023/09/15 10:16:19;;;;;;;5.60;5.10;;;23.10;99.90;;;;;;4911921;29;20179;-28
2023/09/15 10:18:47;;;;;;;5.00;4.50;;;23.20;99.90;;;;;;4923341;29;20179;-28
2023/09/15 10:21:14;;;;;;;4.70;4.30;;;23.40;99.90;;;;;;4922846;29;20206;-28
2023/09/15 10:23:40;;;;;;;5.50;5.00;;;23.50;99.90;;;;;;4920457;29;20187;-29
2023/09/15 10:26:09;;;;;;;6.45;4.72;;;23.70;99.90;;;;;;4907608;29;20182;-28
2023/09/15 10:28:38;;;;;;;5.68;4.45;;;23.70;99.90;;;;;;4922712;29;20189;-28
2023/09/15 10:31:11;;;;;;;5.43;4.93;;;23.90;99.90;;;;;;4919561;29;20249;-28
2023/09/15 10:33:41;;;;;;;4.88;4.40;;;24.10;99.90;;;;;;4922319;29;20253;-29
2023/09/15 10:36:17;;;;;;;6.35;4.90;;;24.10;99.90;;;;;;4924839;29;20198;-28
2023/09/15 10:38:45;;;;;;;6.22;5.15;;;24.30;99.90;;;;;;4925645;29;20174;-29
2023/09/15 10:41:24;;;;;;;5.50;4.68;;;24.40;99.90;;;;;;4920397;29;20206;-28
2023/09/15 10:43:53;;;;;;;5.95;4.80;;;24.50;99.90;;;;;;4922093;29;20246;-29
2023/09/15 10:46:20;;;;;;;5.18;4.63;;;24.70;99.90;;;;;;4920971;29;20277;-28
2023/09/15 10:48:48;;;;;;;6.07;4.70;;;24.80;99.90;;;;;;4923785;29;20178;-28
2023/09/15 10:51:17;;;;;;;5.07;4.57;;;24.80;99.90;;;;;;4922219;29;20286;-29
2023/09/15 10:53:56;;;;;;;4.72;4.32;;;24.90;99.90;;;;;;4923674;29;20199;-28
2023/09/15 10:56:24;;;;;;;4.68;4.28;;;24.80;99.90;;;;;;4923826;29;20179;-29
2023/09/15 10:58:53;;;;;;;4.80;4.45;;;25.00;99.90;;;;;;4922199;29;20187;-29
2023/09/15 11:01:21;;;;;;;4.60;4.15;;;25.10;99.90;;;;;;4921998;29;20198;-28
2023/09/15 11:03:48;;;;;;;4.45;4.05;;;25.20;99.90;;;;;;4912818;29;20375;-29
2023/09/15 11:06:20;;;;;;;5.10;4.32;;;25.40;99.90;;;;;;4920691;29;20186;-29
2023/09/15 11:08:49;;;;;;;4.68;4.28;;;25.50;99.90;;;;;;4907356;29;20230;-28
2023/09/15 11:11:17;;;;;;;4.25;3.95;;;25.70;99.90;;;;;;4921971;29;20201;-28
2023/09/15 11:13:44;;;;;;;4.53;4.13;;;25.80;99.90;;;;;;4906465;29;20186;-29
2023/09/15 11:16:11;;;;;;;4.82;4.43;;;26.00;99.90;;;;;;4922956;29;20198;-29
2023/09/15 11:18:39;;;;;;;4.97;4.57;;;26.00;99.90;;;;;;4922489;29;20182;-29
2023/09/15 11:21:06;;;;;;;4.68;4.07;;;26.10;99.90;;;;;;4906901;29;20199;-29
2023/09/15 11:23:32;;;;;;;4.90;4.40;;;26.20;99.90;;;;;;4921553;29;20185;-29
2023/09/15 11:26:05;;;;;;;5.10;4.60;;;26.30;99.90;;;;;;4921571;29;20182;-29
2023/09/15 11:28:35;;;;;;;4.85;4.35;;;26.50;99.90;;;;;;4921956;29;20178;-29
2023/09/15 11:31:04;;;;;;;4.75;4.28;;;26.50;99.90;;;;;;4921397;29;20326;-29
2023/09/15 11:33:30;;;;;;;4.65;4.25;;;26.70;99.90;;;;;;4904323;29;20186;-29
2023/09/15 11:36:00;;;;;;;4.60;4.20;;;26.80;99.90;;;;;;4921582;29;20189;-29
2023/09/15 11:38:27;;;;;;;4.63;4.22;;;26.90;99.90;;;;;;4920744;29;20182;-29
2023/09/15 11:40:53;;;;;;;5.32;4.53;;;27.10;99.90;;;;;;4905498;29;20206;-29
2023/09/15 11:43:23;;;;;;;4.38;3.95;;;27.20;99.90;;;;;;4919151;29;20191;-28
2023/09/15 11:45:52;;;;;;;4.20;3.90;;;27.30;99.90;;;;;;4919333;29;20505;-29
2023/09/15 11:48:21;;;;;;;4.93;4.43;;;27.40;99.90;;;;;;4921241;29;20187;-29
2023/09/15 11:50:47;;;;;;;4.63;4.20;;;27.50;99.90;;;;;;4905340;29;20205;-30
2023/09/15 11:53:23;;;;;;;5.13;4.70;;;27.50;99.90;;;;;;4920934;29;20197;-30
2023/09/15 11:55:53;;;;;;;5.72;4.60;;;27.30;99.90;;;;;;4920601;29;20186;-29
2023/09/15 11:58:22;;;;;;;4.68;4.28;;;27.30;99.90;;;;;;4920083;29;20170;-30
2023/09/15 12:00:51;;;;;;;4.88;4.28;;;27.40;99.90;;;;;;4892439;29;20222;-30
2023/09/15 12:03:19;;;;;;;4.32;4.03;;;27.50;99.90;;;;;;4919357;29;20265;-30
2023/09/15 12:05:45;;;;;;;4.70;4.10;;;27.60;99.90;;;;;;4921706;29;20186;-29
2023/09/15 12:08:12;;;;;;;4.95;4.45;;;27.80;99.90;;;;;;4922606;29;20182;-30
2023/09/15 12:10:38;;;;;;;4.72;4.40;;;27.80;99.90;;;;;;4921166;29;20208;-30
2023/09/15 12:13:04;;;;;;;4.60;4.20;;;27.90;99.90;;;;;;4925670;29;20280;-30
2023/09/15 12:15:32;;;;;;;4.88;4.35;;;28.10;99.90;;;;;;4920976;29;20192;-30
2023/09/15 12:17:58;;;;;;;4.82;4.13;;;28.20;99.90;;;;;;4925047;29;20261;-30
2023/09/15 12:20:25;;;;;;;4.70;4.30;;;28.20;99.90;;;;;;4925230;29;20205;-30
2023/09/15 12:22:55;;;;;;;4.68;4.28;;;28.20;99.90;;;;;;4909771;29;20193;-30
2023/09/15 12:25:21;;;;;;;4.10;3.80;;;28.20;99.90;;;;;;4925220;29;20183;-30
2023/09/15 12:27:47;;;;;;;5.35;4.85;;;28.20;99.90;;;;;;4925291;29;20245;-30
2023/09/15 12:30:15;;;;;;;5.00;4.57;;;28.30;99.90;;;;;;4924728;29;20273;-30
2023/09/15 12:32:44;;;;;;;4.55;4.10;;;28.10;99.90;;;;;;4924747;29;20190;-29
2023/09/15 12:35:12;;;;;;;4.30;3.90;;;28.10;99.90;;;;;;4923819;29;20218;-30
2023/09/15 12:37:46;;;;;;;4.40;4.05;;;28.00;99.90;;;;;;4925675;29;20190;-30
2023/09/15 12:40:15;;;;;;;5.30;4.20;;;28.20;99.90;;;;;;4925390;29;20233;-30
2023/09/15 12:42:43;;;;;;;4.63;4.22;;;28.30;99.90;;;;;;4924521;29;20195;-30
2023/09/15 12:45:14;;;;;;;4.25;3.95;;;28.40;99.90;;;;;;4906470;29;20186;-30
2023/09/15 12:47:40;;;;;;;4.40;4.00;;;28.50;99.90;;;;;;4923494;29;20179;-31
2023/09/15 12:50:07;;;;;;;4.13;3.83;;;28.60;99.90;;;;;;4907794;29;20236;-29